createdAt,value
2023-07-28T00:01:07.402Z,54.09
2023-07-28T00:03:35.152Z,54.21
2023-07-28T00:06:02.950Z,54.36
2023-07-28T00:08:32.144Z,54.37
2023-07-28T00:10:59.961Z,54.70
2023-07-28T00:13:27.778Z,54.80
2023-07-28T00:15:55.587Z,54.98
2023-07-28T00:18:23.388Z,55.00
2023-07-28T00:20:51.321Z,55.28
2023-07-28T00:23:19.198Z,55.30
2023-07-28T00:25:48.399Z,55.32
2023-07-28T00:28:16.445Z,55.62
2023-07-28T00:30:44.528Z,55.85
2023-07-28T00:33:12.486Z,55.69
2023-07-28T00:35:40.269Z,56.01
2023-07-28T00:38:08.168Z,56.17
2023-07-28T00:40:37.097Z,56.48
2023-07-28T00:43:06.299Z,56.45
2023-07-28T00:45:35.915Z,56.68
2023-07-28T00:48:04.006Z,56.73
2023-07-28T00:50:32.175Z,56.80
2023-07-28T00:53:00.081Z,56.84
2023-07-28T00:55:28.109Z,57.09
2023-07-28T00:57:55.973Z,57.45
2023-07-28T01:00:25.178Z,57.60
2023-07-28T01:02:53.099Z,57.67
2023-07-28T01:05:23.345Z,57.77
2023-07-28T01:08:01.375Z,57.92
2023-07-28T01:10:33.469Z,57.83
2023-07-28T01:13:01.447Z,58.14
2023-07-28T01:15:30.719Z,58.27
2023-07-28T01:17:58.632Z,58.41
2023-07-28T01:20:31.157Z,58.35
2023-07-28T01:23:09.800Z,58.83
2023-07-28T01:25:50.041Z,58.92
2023-07-28T01:28:20.298Z,58.91
2023-07-28T01:30:48.185Z,59.10
2023-07-28T01:33:16.103Z,59.13
2023-07-28T01:35:43.829Z,59.31
2023-07-28T01:38:11.712Z,59.73
2023-07-28T01:40:39.578Z,59.78
2023-07-28T01:43:07.350Z,59.83
2023-07-28T01:45:36.618Z,59.93
2023-07-28T01:48:04.791Z,59.97
2023-07-28T01:50:32.706Z,60.27
2023-07-28T01:53:00.492Z,60.38
2023-07-28T01:55:29.008Z,60.58
2023-07-28T01:57:58.745Z,60.32
2023-07-28T02:00:27.205Z,60.68
2023-07-28T02:02:56.640Z,61.04
2023-07-28T02:05:24.684Z,61.18
2023-07-28T02:07:52.610Z,61.14
2023-07-28T02:10:20.564Z,60.87
2023-07-28T02:12:48.328Z,61.36
2023-07-28T02:15:16.206Z,61.46
2023-07-28T02:17:44.050Z,61.42
2023-07-28T02:20:14.223Z,61.71
2023-07-28T02:22:42.411Z,61.95
2023-07-28T02:25:11.137Z,62.16
2023-07-28T02:27:39.110Z,62.10
2023-07-28T02:30:08.299Z,62.12
2023-07-28T02:32:36.189Z,62.41
2023-07-28T02:35:04.079Z,62.36
2023-07-28T02:37:33.231Z,62.68
2023-07-28T02:40:01.082Z,62.71
2023-07-28T02:42:28.871Z,62.70
2023-07-28T02:44:56.603Z,62.84
2023-07-28T02:47:24.502Z,63.17
2023-07-28T02:49:52.497Z,62.96
2023-07-28T02:52:20.270Z,63.16
2023-07-28T02:54:51.317Z,63.40
2023-07-28T02:57:19.168Z,63.48
2023-07-28T02:59:46.952Z,63.37
2023-07-28T03:02:14.986Z,63.53
2023-07-28T03:04:42.873Z,63.91
2023-07-28T03:07:10.646Z,63.65
2023-07-28T03:09:38.513Z,64.18
2023-07-28T03:12:08.766Z,64.08
2023-07-28T03:14:36.579Z,64.22
2023-07-28T03:17:04.494Z,64.22
2023-07-28T03:19:32.313Z,64.36
2023-07-28T03:22:00.111Z,64.49
2023-07-28T03:24:27.942Z,64.62
2023-07-28T03:26:55.775Z,64.68
2023-07-28T03:29:24.862Z,64.78
2023-07-28T03:31:52.665Z,64.98
2023-07-28T03:34:20.418Z,65.01
2023-07-28T03:36:48.194Z,65.08
2023-07-28T03:39:16.006Z,65.26
2023-07-28T03:41:43.890Z,65.13
2023-07-28T03:44:11.754Z,65.48
2023-07-28T03:46:41.269Z,65.51
2023-07-28T03:49:09.032Z,65.51
2023-07-28T03:51:36.764Z,65.65
2023-07-28T03:54:04.641Z,65.67
2023-07-28T03:56:33.617Z,65.86
2023-07-28T03:59:01.527Z,66.04
2023-07-28T04:01:29.391Z,65.98
2023-07-28T04:03:58.499Z,66.36
2023-07-28T04:06:41.935Z,66.61
2023-07-28T04:09:10.247Z,66.43
2023-07-28T04:11:38.033Z,66.98
2023-07-28T04:14:06.824Z,66.78
2023-07-28T04:16:34.978Z,67.17
2023-07-28T04:19:04.398Z,67.19
2023-07-28T04:21:32.213Z,67.13
2023-07-28T04:24:00.024Z,67.34
2023-07-28T04:26:28.772Z,67.68
2023-07-28T04:28:56.580Z,67.84
2023-07-28T04:31:24.389Z,67.78
2023-07-28T04:33:52.196Z,68.01
2023-07-28T04:36:21.383Z,67.90
2023-07-28T04:38:49.142Z,67.99
2023-07-28T04:41:17.083Z,68.37
2023-07-28T04:43:44.861Z,68.39
2023-07-28T04:46:12.634Z,68.58
2023-07-28T04:48:40.432Z,68.71
2023-07-28T04:51:08.232Z,68.74
2023-07-28T04:53:37.410Z,68.84
2023-07-28T04:56:05.958Z,68.68
2023-07-28T04:58:33.774Z,68.85
2023-07-28T05:01:02.536Z,69.07
2023-07-28T05:03:30.342Z,69.06
2023-07-28T05:05:58.072Z,69.22
2023-07-28T05:08:25.844Z,68.95
2023-07-28T05:10:54.905Z,69.22
2023-07-28T05:13:22.661Z,69.36
2023-07-28T05:15:50.455Z,69.39
2023-07-28T05:18:18.263Z,69.39
2023-07-28T05:20:45.973Z,69.47
2023-07-28T05:23:13.687Z,69.44
2023-07-28T05:25:41.544Z,69.50
2023-07-28T05:28:10.798Z,69.35
2023-07-28T05:30:38.646Z,69.46
2023-07-28T05:33:06.656Z,69.66
2023-07-28T05:35:34.536Z,69.67
2023-07-28T05:38:02.406Z,69.59
2023-07-28T05:40:30.210Z,69.75
2023-07-28T05:42:58.113Z,69.65
2023-07-28T05:45:27.231Z,69.82
2023-07-28T05:47:54.993Z,69.79
2023-07-28T05:50:22.860Z,69.86
2023-07-28T05:52:50.635Z,70.01
2023-07-28T05:55:18.680Z,69.90
2023-07-28T05:57:46.577Z,70.13
2023-07-28T06:00:15.239Z,70.09
2023-07-28T06:02:45.330Z,69.97
2023-07-28T06:05:13.283Z,70.04
2023-07-28T06:07:41.001Z,70.11
2023-07-28T06:10:09.909Z,70.17
2023-07-28T06:12:37.884Z,70.25
2023-07-28T06:15:07.079Z,70.03
2023-07-28T06:17:34.817Z,70.18
2023-07-28T06:20:04.073Z,70.09
2023-07-28T06:22:31.811Z,69.87
2023-07-28T06:24:59.570Z,70.00
2023-07-28T06:27:27.332Z,70.13
2023-07-28T06:29:55.037Z,69.84
2023-07-28T06:32:24.493Z,69.81
2023-07-28T06:34:52.908Z,69.88
2023-07-28T06:37:22.359Z,70.00
2023-07-28T06:39:50.306Z,69.80
2023-07-28T06:42:24.769Z,69.87
2023-07-28T06:44:53.068Z,69.54
2023-07-28T06:47:21.028Z,69.60
2023-07-28T06:49:48.790Z,69.74
2023-07-28T06:52:16.574Z,69.53
2023-07-28T06:54:45.678Z,69.65
2023-07-28T06:57:13.447Z,69.62
2023-07-28T06:59:41.215Z,69.49
2023-07-28T07:02:10.219Z,69.38
2023-07-28T07:04:38.264Z,69.49
2023-07-28T07:07:06.515Z,69.39
2023-07-28T07:09:34.294Z,69.55
2023-07-28T07:12:03.413Z,69.22
2023-07-28T07:14:31.231Z,69.26
2023-07-28T07:16:58.936Z,69.35
2023-07-28T07:19:26.933Z,69.23
2023-07-28T07:21:54.745Z,69.37
2023-07-28T07:24:22.549Z,69.38
2023-07-28T07:26:50.330Z,69.20
2023-07-28T07:29:19.465Z,69.31
2023-07-28T07:31:47.291Z,69.20
2023-07-28T07:34:15.070Z,69.19
2023-07-28T07:36:42.965Z,69.27
2023-07-28T07:39:10.746Z,69.05
2023-07-28T07:41:38.622Z,68.92
2023-07-28T07:44:06.372Z,69.01
2023-07-28T07:46:35.475Z,68.93
2023-07-28T07:49:06.702Z,68.86
2023-07-28T07:51:35.208Z,68.70
2023-07-28T07:54:03.397Z,68.81
2023-07-28T07:56:31.373Z,68.65
2023-07-28T07:58:59.219Z,68.51
2023-07-28T08:01:27.014Z,68.48
2023-07-28T08:03:56.135Z,68.47
2023-07-28T08:06:24.022Z,68.36
2023-07-28T08:08:53.749Z,68.17
2023-07-28T08:11:21.795Z,68.17
2023-07-28T08:13:50.463Z,68.03
2023-07-28T08:16:18.395Z,68.01
2023-07-28T08:18:46.239Z,67.98
2023-07-28T08:21:15.325Z,68.01
2023-07-28T08:23:43.137Z,67.98
2023-07-28T08:26:10.907Z,67.81
2023-07-28T08:28:39.022Z,67.83
2023-07-28T08:31:07.288Z,67.68
2023-07-28T08:33:35.097Z,67.76
2023-07-28T08:36:05.137Z,67.61
2023-07-28T08:38:34.547Z,67.43
2023-07-28T08:41:02.444Z,67.41
2023-07-28T08:43:30.314Z,67.40
2023-07-28T08:45:58.573Z,67.38
2023-07-28T08:48:26.788Z,67.62
2023-07-28T08:50:55.128Z,67.24
2023-07-28T08:53:22.925Z,67.11
2023-07-28T08:55:52.067Z,67.11
2023-07-28T08:58:21.535Z,67.10
2023-07-28T09:00:51.001Z,66.98
2023-07-28T09:03:19.917Z,66.94
2023-07-28T09:05:48.829Z,66.80
2023-07-28T09:08:17.451Z,66.83
2023-07-28T09:10:46.868Z,66.85
2023-07-28T09:13:18.075Z,66.72
2023-07-28T09:15:46.771Z,66.49
2023-07-28T09:18:16.360Z,66.83
2023-07-28T09:20:45.096Z,66.89
2023-07-28T09:23:17.330Z,66.62
2023-07-28T09:25:45.264Z,66.65
2023-07-28T09:28:13.138Z,66.81
2023-07-28T09:30:50.714Z,66.57
2023-07-28T09:33:31.347Z,66.43
2023-07-28T09:35:59.628Z,66.23
2023-07-28T09:38:30.149Z,66.45
2023-07-28T09:40:59.812Z,66.43
2023-07-28T09:43:28.108Z,66.30
2023-07-28T09:45:57.561Z,66.51
2023-07-28T09:48:27.166Z,66.35
2023-07-28T09:50:55.424Z,66.01
2023-07-28T09:53:25.007Z,66.18
2023-07-28T09:55:52.983Z,66.21
2023-07-28T09:58:26.654Z,66.22
2023-07-28T10:00:55.346Z,66.22
2023-07-28T10:03:25.269Z,66.20
2023-07-28T10:05:53.416Z,66.14
2023-07-28T10:08:23.053Z,66.09
2023-07-28T10:10:53.874Z,66.12
2023-07-28T10:13:23.278Z,65.99
2023-07-28T10:15:52.641Z,66.03
2023-07-28T10:18:22.337Z,66.16
2023-07-28T10:20:52.402Z,66.24
2023-07-28T10:23:23.440Z,65.96
2023-07-28T10:25:59.132Z,66.10
2023-07-28T10:28:46.720Z,66.06
2023-07-28T10:31:33.018Z,66.08
2023-07-28T10:34:22.914Z,66.14
2023-07-28T10:37:10.765Z,66.27
2023-07-28T10:40:25.013Z,66.24
2023-07-28T10:43:11.484Z,66.27
2023-07-28T10:45:58.221Z,66.36
2023-07-28T10:48:47.090Z,66.13
2023-07-28T10:51:34.531Z,66.29
2023-07-28T10:54:22.428Z,66.33
2023-07-28T10:57:09.254Z,66.44
2023-07-28T11:00:01.616Z,66.34
2023-07-28T11:02:51.320Z,66.51
2023-07-28T11:05:38.579Z,66.06
2023-07-28T11:08:26.989Z,66.20
2023-07-28T11:11:15.991Z,66.27
2023-07-28T11:14:03.125Z,66.27
2023-07-28T11:16:50.231Z,66.18
2023-07-28T11:19:36.756Z,66.30
2023-07-28T11:22:22.939Z,66.14
2023-07-28T11:25:10.778Z,66.06
2023-07-28T11:27:58.825Z,66.02
2023-07-28T11:30:45.867Z,65.93
2023-07-28T11:33:33.662Z,66.10
2023-07-28T11:36:24.500Z,65.74
2023-07-28T11:39:12.607Z,65.71
2023-07-28T11:41:59.469Z,65.66
2023-07-28T11:44:47.074Z,65.58
2023-07-28T11:47:33.889Z,65.40
2023-07-28T11:50:25.038Z,65.50
2023-07-28T11:53:12.536Z,65.35
2023-07-28T11:55:58.660Z,65.18
2023-07-28T11:58:45.016Z,65.16
2023-07-28T12:01:33.446Z,65.12
2023-07-28T12:07:17.650Z,65.00
2023-07-28T12:10:07.685Z,65.07
2023-07-28T12:21:23.895Z,64.74
2023-07-28T12:24:10.257Z,64.73
2023-07-28T12:26:59.293Z,64.61
2023-07-28T12:32:36.913Z,64.72
2023-07-28T12:35:49.576Z,64.77
2023-07-28T12:41:22.634Z,64.54
2023-07-28T12:44:10.793Z,64.47
2023-07-28T12:46:58.452Z,64.54
2023-07-28T12:49:52.193Z,64.51
2023-07-28T12:55:30.530Z,64.30
2023-07-28T13:01:06.610Z,64.31
2023-07-28T13:03:54.541Z,64.40
2023-07-28T13:06:42.170Z,64.42
2023-07-28T13:15:10.274Z,64.36
2023-07-28T13:17:56.703Z,64.43
2023-07-28T13:20:42.904Z,64.37
2023-07-28T13:23:29.203Z,64.30
2023-07-28T13:26:16.844Z,64.42
2023-07-28T13:29:03.648Z,64.46
2023-07-28T13:31:50.091Z,64.31
2023-07-28T13:34:36.456Z,64.35
2023-07-28T13:37:22.704Z,64.25
2023-07-28T13:40:12.057Z,64.32
2023-07-28T13:43:06.059Z,64.39
2023-07-28T13:45:52.925Z,64.43
2023-07-28T13:52:16.292Z,64.48
2023-07-28T13:55:12.776Z,64.63
2023-07-28T13:57:43.846Z,64.71
2023-07-28T14:00:31.779Z,64.80
2023-07-28T14:03:18.083Z,64.70
2023-07-28T14:06:04.951Z,64.91
2023-07-28T14:08:51.200Z,64.74
2023-07-28T14:11:37.765Z,64.79
2023-07-28T14:14:24.445Z,64.76
2023-07-28T14:17:12.244Z,64.66
2023-07-28T14:19:58.378Z,64.68
2023-07-28T14:22:44.713Z,64.85
2023-07-28T14:25:30.935Z,64.68
2023-07-28T14:28:17.463Z,64.46
2023-07-28T14:31:03.771Z,64.44
2023-07-28T14:33:51.676Z,63.69
2023-07-28T14:36:38.080Z,63.92
2023-07-28T14:39:24.395Z,63.83
2023-07-28T14:42:10.856Z,63.12
2023-07-28T14:44:57.469Z,63.41
2023-07-28T14:47:43.615Z,62.60
2023-07-28T14:50:31.212Z,62.52
2023-07-28T14:53:31.213Z,62.64
2023-07-28T14:56:19.064Z,62.02
2023-07-28T14:59:05.431Z,61.59
2023-07-28T15:01:51.975Z,61.98
2023-07-28T15:04:38.371Z,61.66
2023-07-28T15:07:26.083Z,61.46
2023-07-28T15:10:12.603Z,60.94
2023-07-28T15:12:59.302Z,60.79
2023-07-28T15:15:46.221Z,60.42
2023-07-28T15:18:32.434Z,59.98
2023-07-28T15:21:19.074Z,60.02
2023-07-28T15:24:07.027Z,59.84
2023-07-28T15:26:53.487Z,59.35
2023-07-28T15:29:39.907Z,59.14
2023-07-28T15:32:26.142Z,59.27
2023-07-28T15:35:12.564Z,59.08
2023-07-28T15:37:59.211Z,59.19
2023-07-28T15:40:46.656Z,58.82
2023-07-28T15:43:32.880Z,58.55
2023-07-28T15:46:19.142Z,58.60
2023-07-28T15:49:05.363Z,58.34
2023-07-28T15:51:51.541Z,58.22
2023-07-28T15:54:37.953Z,58.03
2023-07-28T15:57:25.709Z,57.56
2023-07-28T15:59:53.641Z,57.44
2023-07-28T16:02:21.519Z,57.44
2023-07-28T16:04:49.338Z,57.12
2023-07-28T16:07:17.554Z,57.06
2023-07-28T16:09:45.866Z,56.87
2023-07-28T16:12:13.599Z,56.95
2023-07-28T16:14:42.680Z,56.67
2023-07-28T16:17:10.456Z,56.71
2023-07-28T16:19:38.202Z,56.43
2023-07-28T16:22:06.088Z,56.50
2023-07-28T16:24:45.568Z,56.33
2023-07-28T16:27:14.506Z,56.28
2023-07-28T16:29:43.733Z,56.30
2023-07-28T16:32:12.269Z,56.05
2023-07-28T16:34:40.533Z,55.80
2023-07-28T16:37:08.284Z,55.95
2023-07-28T16:39:36.128Z,55.92
2023-07-28T16:42:04.719Z,55.93
2023-07-28T16:44:32.562Z,55.91
2023-07-28T16:47:01.712Z,55.77
2023-07-28T16:49:29.630Z,55.62
2023-07-28T16:51:57.377Z,55.40
2023-07-28T16:54:25.195Z,55.65
2023-07-28T16:56:53.019Z,55.55
2023-07-28T16:59:20.798Z,55.41
2023-07-28T17:01:48.840Z,55.52
2023-07-28T17:04:19.168Z,55.58
2023-07-28T17:06:47.168Z,55.40
2023-07-28T17:09:15.067Z,55.56
2023-07-28T17:11:42.890Z,55.38
2023-07-28T17:14:10.617Z,55.39
2023-07-28T17:16:38.399Z,55.43
2023-07-28T17:19:08.342Z,55.50
2023-07-28T17:21:37.813Z,55.50
2023-07-28T17:24:06.183Z,55.69
2023-07-28T17:26:33.994Z,55.49
2023-07-28T17:29:01.889Z,55.63
2023-07-28T17:31:29.687Z,55.63
2023-07-28T17:33:57.545Z,55.51
2023-07-28T17:36:25.520Z,55.57
2023-07-28T17:38:54.713Z,55.67
2023-07-28T17:41:22.588Z,55.80
2023-07-28T17:43:50.449Z,55.83
2023-07-28T17:46:18.223Z,55.80
2023-07-28T17:48:46.026Z,55.78
2023-07-28T17:51:13.724Z,55.90
2023-07-28T17:53:41.484Z,56.00
2023-07-28T17:56:12.652Z,56.14
2023-07-28T17:58:40.557Z,55.92
2023-07-28T18:01:08.439Z,56.08
2023-07-28T18:03:36.231Z,55.96
2023-07-28T18:06:03.984Z,56.05
2023-07-28T18:08:31.729Z,56.11
2023-07-28T18:11:02.580Z,56.25
2023-07-28T18:13:31.661Z,56.25
2023-07-28T18:15:59.494Z,56.27
2023-07-28T18:18:27.282Z,56.28
2023-07-28T18:20:55.039Z,56.25
2023-07-28T18:23:23.012Z,56.39
2023-07-28T18:25:50.951Z,56.46
2023-07-28T18:28:18.781Z,56.40
2023-07-28T18:30:47.944Z,56.58
2023-07-28T18:33:15.750Z,56.63
2023-07-28T18:35:43.705Z,56.62
2023-07-28T18:38:11.454Z,56.63
2023-07-28T18:40:39.223Z,56.60
2023-07-28T18:43:06.997Z,56.74
2023-07-28T18:45:34.767Z,56.88
2023-07-28T18:48:04.194Z,56.73
2023-07-28T18:50:32.012Z,56.86
2023-07-28T18:52:59.815Z,56.92
2023-07-28T18:55:27.874Z,56.94
2023-07-28T18:57:55.665Z,56.92
2023-07-28T19:00:26.305Z,57.02
2023-07-28T19:02:56.180Z,57.16
2023-07-28T19:05:26.038Z,57.09
2023-07-28T19:07:53.902Z,57.21
2023-07-28T19:10:21.859Z,57.17
2023-07-28T19:12:48.652Z,57.29
2023-07-28T19:15:29.858Z,57.00
2023-07-28T19:18:05.070Z,57.33
2023-07-28T19:20:34.221Z,57.15
2023-07-28T19:23:02.055Z,57.52
2023-07-28T19:25:30.448Z,57.35
2023-07-28T19:27:58.550Z,57.52
2023-07-28T19:30:26.516Z,57.34
2023-07-28T19:32:54.347Z,57.34
2023-07-28T19:35:22.265Z,57.40
2023-07-28T19:37:51.428Z,57.45
2023-07-28T19:40:19.365Z,57.72
2023-07-28T19:42:47.148Z,57.71
2023-07-28T19:45:15.007Z,57.47
2023-07-28T19:47:42.813Z,57.86
2023-07-28T19:50:14.241Z,57.82
2023-07-28T19:52:45.569Z,57.47
2023-07-28T19:55:14.844Z,57.78
2023-07-28T19:57:42.556Z,57.98
2023-07-28T20:00:11.359Z,57.59
2023-07-28T20:02:39.414Z,58.11
2023-07-28T20:05:08.283Z,57.91
2023-07-28T20:07:36.202Z,57.85
2023-07-28T20:10:04.144Z,57.99
2023-07-28T20:12:33.565Z,57.88
2023-07-28T20:15:02.754Z,58.03
2023-07-28T20:17:30.571Z,58.22
2023-07-28T20:19:58.732Z,58.41
2023-07-28T20:22:26.621Z,58.08
2023-07-28T20:24:54.358Z,58.28
2023-07-28T20:27:22.917Z,58.53
2023-07-28T20:29:52.135Z,58.58
2023-07-28T20:32:19.857Z,58.44
2023-07-28T20:34:47.712Z,58.73
2023-07-28T20:37:15.701Z,58.71
2023-07-28T20:39:43.402Z,58.55
2023-07-28T20:42:11.182Z,58.89
2023-07-28T20:44:38.962Z,58.89
2023-07-28T20:47:08.717Z,59.02
2023-07-28T20:49:38.467Z,59.09
2023-07-28T20:52:07.258Z,59.10
2023-07-28T20:54:34.995Z,59.10
2023-07-28T20:57:02.898Z,59.19
2023-07-28T20:59:30.606Z,59.26
2023-07-28T21:01:58.404Z,59.34
2023-07-28T21:04:27.773Z,59.45
2023-07-28T21:06:55.494Z,59.55
2023-07-28T21:09:23.370Z,59.54
2023-07-28T21:11:51.118Z,59.71
2023-07-28T21:14:18.957Z,59.87
2023-07-28T21:16:46.923Z,59.79
2023-07-28T21:19:14.766Z,59.97
2023-07-28T21:21:44.258Z,60.12
2023-07-28T21:24:12.043Z,60.24
2023-07-28T21:26:39.754Z,59.96
2023-07-28T21:29:07.899Z,60.18
2023-07-28T21:31:36.091Z,60.25
2023-07-28T21:34:03.886Z,60.22
2023-07-28T21:36:31.612Z,60.47
2023-07-28T21:39:01.753Z,60.50
2023-07-28T21:41:29.536Z,60.94
2023-07-28T21:43:57.384Z,60.87
2023-07-28T21:46:25.464Z,60.96
2023-07-28T21:48:53.304Z,60.67
2023-07-28T21:51:21.052Z,60.70
2023-07-28T21:53:48.844Z,60.75
2023-07-28T21:56:20.201Z,61.16
2023-07-28T21:58:49.315Z,61.09
2023-07-28T22:01:17.062Z,61.51
2023-07-28T22:03:44.963Z,61.56
2023-07-28T22:06:13.069Z,61.24
2023-07-28T22:08:40.958Z,61.54
2023-07-28T22:11:10.502Z,61.75
2023-07-28T22:13:41.075Z,61.77
2023-07-28T22:16:09.171Z,62.03
2023-07-28T22:18:36.953Z,62.18
2023-07-28T22:21:04.957Z,62.19
2023-07-28T22:23:32.716Z,62.03
2023-07-28T22:26:00.974Z,62.14
2023-07-28T22:28:28.761Z,62.21
2023-07-28T22:30:57.932Z,62.54
2023-07-28T22:33:25.815Z,62.61
2023-07-28T22:35:55.532Z,62.75
2023-07-28T22:38:23.384Z,62.74
2023-07-28T22:40:51.309Z,62.83
2023-07-28T22:43:19.117Z,63.05
2023-07-28T22:45:46.941Z,63.14
2023-07-28T22:48:17.326Z,63.30
2023-07-28T22:50:48.618Z,63.53
2023-07-28T22:53:16.668Z,63.51
2023-07-28T22:55:44.382Z,63.89
2023-07-28T22:58:12.200Z,63.73
2023-07-28T23:00:40.013Z,63.81
2023-07-28T23:03:07.832Z,64.05
2023-07-28T23:05:38.314Z,64.07
2023-07-28T23:08:06.070Z,64.21
2023-07-28T23:10:33.941Z,64.27
2023-07-28T23:13:01.783Z,64.37
2023-07-28T23:15:29.485Z,64.56
2023-07-28T23:17:57.334Z,64.47
2023-07-28T23:20:25.348Z,64.69
2023-07-28T23:22:54.491Z,64.72
2023-07-28T23:25:22.390Z,64.93
2023-07-28T23:27:50.364Z,64.83
2023-07-28T23:30:18.147Z,65.14
2023-07-28T23:32:46.016Z,65.16
2023-07-28T23:35:13.832Z,65.51
2023-07-28T23:37:41.742Z,65.41
2023-07-28T23:40:11.662Z,65.65
2023-07-28T23:42:39.782Z,65.64
2023-07-28T23:45:08.870Z,65.92
2023-07-28T23:47:36.803Z,65.90
2023-07-28T23:50:05.131Z,65.99
2023-07-28T23:52:32.942Z,66.01
2023-07-28T23:55:01.141Z,66.38
2023-07-28T23:57:30.363Z,66.35
2023-07-28T23:59:58.117Z,66.40
